Time;durP1;ratioP1;P1;durP2;ratioP2;P2;SDS_P1;SDS_P2;PMS_P1;PMS_P2;Temp;Humidity;BMP_temperature;BMP_pressure;BME280_temperature;BME280_humidity;BME280_pressure;Samples;Min_cycle;Max_cycle;Signal;HPM_P1;HPM_P2
2023/01/05 00:01:13;;;;;;;0.87;0.40;;;;;;;9.36;100.00;153763.66;5015041;28;20416;-82
2023/01/05 00:03:59;;;;;;;0.97;0.40;;;;;;;9.38;100.00;153767.53;5007493;28;20453;-82
2023/01/05 00:06:45;;;;;;;1.57;0.40;;;;;;;9.39;100.00;153770.13;4975557;28;20400;-82
2023/01/05 00:09:30;;;;;;;1.43;0.50;;;;;;;9.39;100.00;153771.44;4989047;28;20454;-82
2023/01/05 00:24:35;;;;;;;1.77;0.63;;;;;;;9.39;100.00;153771.44;4969356;28;20454;-82
2023/01/05 00:27:20;;;;;;;0.87;0.40;;;;;;;9.38;100.00;153768.84;4994312;28;20446;-82
2023/01/05 00:30:07;;;;;;;0.90;0.47;;;;;;;9.44;100.00;153783.06;4987972;28;20437;-82
2023/01/05 00:32:52;;;;;;;1.23;0.60;;;;;;;9.49;100.00;153796.00;5006504;28;20457;-82
2023/01/05 00:35:38;;;;;;;0.90;0.50;;;;;;;9.52;100.00;153805.06;5006130;28;20497;-82
2023/01/05 00:38:25;;;;;;;0.97;0.40;;;;;;;9.55;100.00;153812.84;5010215;28;20455;-82
2023/01/05 00:41:10;;;;;;;0.80;0.50;;;;;;;9.59;100.00;153821.88;5005767;28;20441;-82
2023/01/05 00:43:56;;;;;;;0.80;0.40;;;;;;;9.50;100.00;153799.91;4997243;28;20511;-82
2023/01/05 00:46:41;;;;;;;0.80;0.40;;;;;;;9.53;100.00;153807.63;4995827;28;20496;-82
2023/01/05 00:49:26;;;;;;;0.87;0.50;;;;;;;9.53;100.00;153806.38;4987512;28;20518;-82
2023/01/05 00:52:12;;;;;;;0.80;0.30;;;;;;;9.54;100.00;153808.94;5005736;28;20561;-82
2023/01/05 00:54:58;;;;;;;0.93;0.40;;;;;;;9.53;100.00;153807.63;4997488;28;20545;-82
2023/01/05 00:57:45;;;;;;;0.60;0.20;;;;;;;9.54;100.00;153810.25;4991375;28;20457;-82
2023/01/05 01:00:30;;;;;;;1.03;0.40;;;;;;;9.52;100.00;153805.06;4985014;28;20609;-82
2023/01/05 01:03:16;;;;;;;0.83;0.43;;;;;;;9.55;100.00;153811.53;4991205;28;20462;-82
2023/01/05 01:06:01;;;;;;;0.80;0.40;;;;;;;9.54;100.00;153808.94;4991273;28;20453;-82
2023/01/05 01:08:46;;;;;;;0.80;0.40;;;;;;;9.59;100.00;153823.16;4988507;28;20615;-82
2023/01/05 01:11:33;;;;;;;0.90;0.40;;;;;;;9.61;100.00;153828.34;4991236;28;20438;-82
2023/01/05 01:14:18;;;;;;;0.70;0.40;;;;;;;9.53;100.00;153806.38;4990641;28;20588;-82
2023/01/05 01:17:04;;;;;;;0.70;0.37;;;;;;;9.58;100.00;153819.31;4993075;28;20543;-82
2023/01/05 01:19:49;;;;;;;0.90;0.33;;;;;;;9.56;100.00;153815.41;5001226;28;20453;-82
2023/01/05 01:22:35;;;;;;;1.30;0.40;;;;;;;9.60;100.00;153825.78;4991723;28;20445;-83
2023/01/05 01:25:20;;;;;;;0.70;0.40;;;;;;;9.58;100.00;153820.56;5000084;28;20449;-82
2023/01/05 01:28:07;;;;;;;1.23;0.40;;;;;;;9.58;100.00;153820.56;4989247;28;21027;-82
2023/01/05 01:30:52;;;;;;;0.70;0.30;;;;;;;9.60;100.00;153824.47;5009235;28;20439;-82
2023/01/05 01:33:39;;;;;;;0.70;0.33;;;;;;;9.63;100.00;153833.53;4994106;28;20952;-82
2023/01/05 01:36:24;;;;;;;0.80;0.30;;;;;;;9.64;100.00;153836.09;4990692;28;20437;-82
2023/01/05 01:39:10;;;;;;;0.70;0.30;;;;;;;9.62;100.00;153830.94;5000506;28;20489;-82
2023/01/05 01:41:57;;;;;;;0.90;0.50;;;;;;;9.65;100.00;153838.72;4972945;28;20411;-82
2023/01/05 01:45:11;;;;;;;0.67;0.20;;;;;;;9.67;100.00;153843.88;4981743;28;20445;-83
2023/01/05 01:47:58;;;;;;;0.70;0.20;;;;;;;9.65;100.00;153838.72;5001701;28;20432;-82
2023/01/05 01:50:46;;;;;;;1.30;0.43;;;;;;;9.67;100.00;153843.88;4983870;28;20439;-82
2023/01/05 01:53:34;;;;;;;1.57;0.40;;;;;;;9.60;100.00;153825.78;4989240;28;21100;-82
2023/01/05 01:56:22;;;;;;;1.70;0.30;;;;;;;9.66;100.00;153841.25;5002777;28;20840;-81
2023/01/05 01:59:07;;;;;;;0.83;0.50;;;;;;;9.64;100.00;153834.81;4992998;28;20452;-81
2023/01/05 02:01:56;;;;;;;0.67;0.30;;;;;;;9.62;100.00;153830.94;5000711;28;20501;-81
2023/01/05 02:04:43;;;;;;;0.70;0.30;;;;;;;9.59;100.00;153823.16;4990756;28;20449;-81
2023/01/05 02:07:30;;;;;;;0.60;0.30;;;;;;;9.58;100.00;153820.56;4986615;28;20957;-81
2023/01/05 02:10:18;;;;;;;0.70;0.30;;;;;;;9.64;100.00;153836.09;5002455;28;20430;-81
2023/01/05 02:13:18;;;;;;;0.67;0.20;;;;;;;9.65;100.00;153838.72;4991341;28;20541;-81
2023/01/05 02:16:09;;;;;;;0.80;0.30;;;;;;;9.64;100.00;153836.09;4994379;28;20462;-82
2023/01/05 02:19:08;;;;;;;1.57;0.30;;;;;;;9.66;100.00;153841.25;5004468;28;20453;-80
2023/01/05 02:22:02;;;;;;;0.70;0.30;;;;;;;9.63;100.00;153833.53;4996509;28;20582;-81
2023/01/05 02:25:15;;;;;;;0.90;0.30;;;;;;;9.64;100.00;153834.81;5005766;28;20417;-81
2023/01/05 02:28:13;;;;;;;0.90;0.47;;;;;;;9.64;100.00;153836.09;4981837;28;21068;-81
2023/01/05 02:31:09;;;;;;;0.60;0.30;;;;;;;9.63;100.00;153833.53;4989708;28;20525;-81
2023/01/05 02:34:08;;;;;;;0.80;0.30;;;;;;;9.61;100.00;153827.06;5002956;28;20807;-81
2023/01/05 02:36:56;;;;;;;0.70;0.20;;;;;;;9.64;100.00;153836.09;4996179;28;20445;-83
2023/01/05 02:39:46;;;;;;;0.70;0.27;;;;;;;9.61;100.00;153828.34;5002586;28;20478;-81
2023/01/05 02:42:34;;;;;;;0.90;0.20;;;;;;;9.54;100.00;153810.25;4990270;28;20787;-81
2023/01/05 02:45:21;;;;;;;0.73;0.20;;;;;;;9.57;100.00;153818.00;4991846;28;20553;-81
2023/01/05 02:48:09;;;;;;;0.70;0.30;;;;;;;9.61;100.00;153828.34;4986421;28;20989;-81
2023/01/05 02:51:00;;;;;;;0.70;0.40;;;;;;;9.56;100.00;153815.41;4997990;28;20438;-81
2023/01/05 02:53:49;;;;;;;0.80;0.30;;;;;;;9.60;100.00;153825.78;4991925;28;20973;-81
2023/01/05 02:56:38;;;;;;;0.80;0.30;;;;;;;9.61;100.00;153827.06;5001654;28;20514;-81
2023/01/05 02:59:27;;;;;;;0.70;0.30;;;;;;;9.60;100.00;153824.47;5003229;28;20979;-82
2023/01/05 03:02:17;;;;;;;2.13;0.40;;;;;;;9.65;100.00;153838.72;4992925;28;20938;-82
2023/01/05 03:05:08;;;;;;;0.87;0.30;;;;;;;9.60;100.00;153825.78;4990213;28;20435;-82
2023/01/05 03:08:05;;;;;;;1.23;0.30;;;;;;;9.66;100.00;153840.00;4997424;28;20453;-81
2023/01/05 03:14:07;;;;;;;0.70;0.30;;;;;;;9.59;100.00;153823.16;5004569;28;20593;-82
2023/01/05 03:16:54;;;;;;;0.80;0.30;;;;;;;9.60;100.00;153825.78;4993686;28;21000;-82
2023/01/05 03:19:44;;;;;;;0.70;0.30;;;;;;;9.64;100.00;153836.09;4972539;28;20589;-82
2023/01/05 03:38:13;;;;;;;0.63;0.30;;;;;;;9.65;100.00;153837.41;4998850;28;20457;-79
2023/01/05 03:41:03;;;;;;;0.70;0.30;;;;;;;9.67;100.00;153843.88;5007810;28;20596;-79
2023/01/05 03:43:50;;;;;;;0.80;0.20;;;;;;;9.63;100.00;153833.53;5014930;28;21013;-79
2023/01/05 03:46:39;;;;;;;0.70;0.20;;;;;;;9.66;100.00;153841.25;4995442;28;20445;-79
2023/01/05 03:49:24;;;;;;;0.70;0.30;;;;;;;9.64;100.00;153836.09;4989940;28;20452;-79
2023/01/05 03:52:09;;;;;;;0.70;0.27;;;;;;;9.63;100.00;153833.53;4986865;28;20536;-80
2023/01/05 03:54:59;;;;;;;0.67;0.20;;;;;;;9.62;100.00;153830.94;5007427;28;20485;-79
2023/01/05 03:57:46;;;;;;;0.70;0.23;;;;;;;9.63;100.00;153833.53;4997364;28;20441;-79
2023/01/05 04:00:32;;;;;;;0.70;0.30;;;;;;;9.63;100.00;153832.25;4996023;28;20644;-79
2023/01/05 04:03:22;;;;;;;0.77;0.23;;;;;;;9.65;100.00;153838.72;5002625;28;20434;-79
2023/01/05 04:06:08;;;;;;;0.90;0.30;;;;;;;9.63;100.00;153833.53;4991978;28;20994;-79
2023/01/05 04:08:55;;;;;;;0.80;0.30;;;;;;;9.68;100.00;153845.16;4991492;28;20908;-79
2023/01/05 04:11:44;;;;;;;0.97;0.30;;;;;;;9.64;100.00;153836.09;5002028;28;20973;-79
2023/01/05 04:14:29;;;;;;;2.50;0.30;;;;;;;9.68;100.00;153846.47;5002024;28;20953;-79
2023/01/05 04:17:15;;;;;;;0.87;0.30;;;;;;;9.69;100.00;153847.72;4995270;28;20441;-79
2023/01/05 04:20:01;;;;;;;1.40;0.40;;;;;;;9.71;100.00;153854.25;4991970;28;20444;-79
2023/01/05 04:22:47;;;;;;;0.90;0.40;;;;;;;9.71;100.00;153854.25;4989670;28;20783;-79
2023/01/05 04:25:34;;;;;;;0.83;0.37;;;;;;;9.73;100.00;153859.41;4992742;28;20898;-79
2023/01/05 04:28:31;;;;;;;2.03;0.40;;;;;;;9.80;100.00;153876.22;4994398;28;20461;-79
2023/01/05 04:31:17;;;;;;;0.70;0.20;;;;;;;9.80;100.00;153877.50;4993080;28;20948;-79
2023/01/05 04:34:03;;;;;;;1.53;0.57;;;;;;;9.77;100.00;153869.75;4997241;28;20824;-79
2023/01/05 04:36:50;;;;;;;1.00;0.30;;;;;;;9.77;100.00;153869.75;5004682;28;20442;-79
2023/01/05 04:39:38;;;;;;;1.03;0.30;;;;;;;9.78;100.00;153872.34;4976347;28;20471;-79
2023/01/05 04:42:23;;;;;;;1.40;0.57;;;;;;;9.79;100.00;153874.91;4977357;28;20925;-79
2023/01/05 04:45:14;;;;;;;1.90;0.30;;;;;;;9.89;100.00;153898.22;4976094;28;21004;-80
2023/01/05 04:47:59;;;;;;;0.70;0.20;;;;;;;9.89;100.00;153898.22;4998280;28;20428;-79
2023/01/05 04:50:44;;;;;;;1.13;0.30;;;;;;;9.91;100.00;153903.38;4999770;28;20508;-79
2023/01/05 04:53:32;;;;;;;0.60;0.20;;;;;;;9.96;100.00;153916.31;5009453;28;20448;-79
2023/01/05 04:56:17;;;;;;;0.70;0.23;;;;;;;9.93;100.00;153908.59;4995820;28;20514;-79
2023/01/05 04:59:04;;;;;;;0.80;0.20;;;;;;;9.98;100.00;153921.53;5001773;28;20996;-79
2023/01/05 05:01:51;;;;;;;0.70;0.30;;;;;;;9.92;100.00;153907.28;4994532;28;20964;-79
2023/01/05 05:04:36;;;;;;;0.70;0.20;;;;;;;9.97;100.00;153918.91;4990706;28;20450;-79
2023/01/05 05:07:22;;;;;;;0.70;0.20;;;;;;;9.97;100.00;153918.91;5006610;28;20429;-79
2023/01/05 05:10:09;;;;;;;0.97;0.20;;;;;;;10.02;100.00;153933.16;4994429;28;20455;-79
2023/01/05 05:12:56;;;;;;;0.60;0.20;;;;;;;9.99;100.00;153925.38;4997661;28;20449;-79
2023/01/05 05:15:44;;;;;;;0.60;0.20;;;;;;;10.00;100.00;153926.69;5006965;28;20410;-79
2023/01/05 05:18:31;;;;;;;0.70;0.20;;;;;;;10.00;100.00;153928.00;4994163;28;20608;-79
2023/01/05 05:21:17;;;;;;;0.70;0.20;;;;;;;9.99;100.00;153924.09;4991791;28;20602;-79
2023/01/05 05:24:02;;;;;;;0.60;0.20;;;;;;;10.01;100.00;153929.25;4997606;28;20457;-79
2023/01/05 05:26:47;;;;;;;0.60;0.20;;;;;;;10.01;100.00;153929.25;4973306;28;20424;-79
2023/01/05 05:29:33;;;;;;;0.70;0.27;;;;;;;10.01;100.00;153929.25;4981944;28;20470;-79
2023/01/05 05:32:18;;;;;;;0.80;0.30;;;;;;;10.03;100.00;153934.47;4991360;28;20446;-79
2023/01/05 05:35:06;;;;;;;0.90;0.20;;;;;;;10.00;100.00;153928.00;5006580;28;20477;-79
2023/01/05 05:37:51;;;;;;;4.13;0.27;;;;;;;9.99;100.00;153925.38;5007108;28;20458;-79
2023/01/05 05:40:36;;;;;;;0.70;0.20;;;;;;;10.00;100.00;153926.69;5004031;28;20537;-79
2023/01/05 05:43:22;;;;;;;0.93;0.40;;;;;;;9.94;100.00;153912.47;4992779;28;20449;-79
2023/01/05 05:46:07;;;;;;;0.93;0.23;;;;;;;9.92;100.00;153906.00;4998399;28;20558;-79
2023/01/05 05:48:53;;;;;;;1.00;0.30;;;;;;;9.90;100.00;153900.81;4990435;28;20509;-79
2023/01/05 05:51:39;;;;;;;0.80;0.20;;;;;;;9.88;100.00;153895.59;4995953;28;20422;-79
2023/01/05 05:54:25;;;;;;;1.20;0.40;;;;;;;9.91;100.00;153903.38;4975578;28;20770;-79
2023/01/05 05:57:10;;;;;;;5.70;0.30;;;;;;;9.88;100.00;153895.59;4993563;28;20421;-79
2023/01/05 05:59:56;;;;;;;0.63;0.20;;;;;;;9.87;100.00;153894.34;4990149;28;20442;-79
2023/01/05 06:02:41;;;;;;;1.07;0.30;;;;;;;9.87;100.00;153894.34;4976302;28;20526;-79
2023/01/05 06:05:26;;;;;;;0.70;0.27;;;;;;;9.86;100.00;153890.44;4981055;28;20440;-78
2023/01/05 06:08:13;;;;;;;0.70;0.20;;;;;;;9.86;100.00;153890.44;4985621;28;20463;-79
2023/01/05 06:10:59;;;;;;;0.70;0.20;;;;;;;9.85;100.00;153887.88;4980004;28;20435;-78
2023/01/05 06:13:44;;;;;;;0.70;0.30;;;;;;;9.84;100.00;153885.28;4980729;28;20589;-78
2023/01/05 06:16:30;;;;;;;0.80;0.30;;;;;;;9.82;100.00;153882.69;4980840;28;20489;-78
2023/01/05 06:19:15;;;;;;;0.97;0.40;;;;;;;9.85;100.00;153887.88;4981145;28;20471;-79
2023/01/05 06:22:01;;;;;;;0.80;0.30;;;;;;;9.82;100.00;153882.69;4980142;28;20537;-78
2023/01/05 06:24:48;;;;;;;0.73;0.20;;;;;;;9.84;100.00;153885.28;4979916;28;20440;-78
2023/01/05 06:27:33;;;;;;;0.80;0.40;;;;;;;9.82;100.00;153881.41;4980657;28;20442;-78
2023/01/05 06:30:19;;;;;;;0.70;0.30;;;;;;;9.85;100.00;153887.88;4992071;28;20797;-78
2023/01/05 06:33:05;;;;;;;0.80;0.30;;;;;;;9.82;100.00;153882.69;4982105;28;20500;-78
2023/01/05 06:35:50;;;;;;;0.80;0.20;;;;;;;9.82;100.00;153880.13;4979773;28;20441;-79
2023/01/05 06:38:36;;;;;;;0.80;0.20;;;;;;;9.83;100.00;153883.97;4980969;28;20596;-79
2023/01/05 06:41:23;;;;;;;0.80;0.20;;;;;;;9.80;100.00;153877.50;4983005;28;20475;-78
2023/01/05 06:44:09;;;;;;;0.70;0.30;;;;;;;9.82;100.00;153880.13;4994748;28;21044;-79
2023/01/05 06:46:54;;;;;;;0.70;0.27;;;;;;;9.78;100.00;153872.34;4994221;28;20515;-79
2023/01/05 06:49:39;;;;;;;0.80;0.40;;;;;;;9.84;100.00;153886.59;4983033;28;22106;-78
2023/01/05 06:52:25;;;;;;;0.70;0.20;;;;;;;9.78;100.00;153871.03;4985497;28;20445;-78
2023/01/05 06:55:11;;;;;;;0.90;0.40;;;;;;;9.79;100.00;153874.91;4980613;28;20560;-78
2023/01/05 06:57:58;;;;;;;0.90;0.37;;;;;;;9.80;100.00;153876.22;4980830;28;20486;-79
2023/01/05 07:00:44;;;;;;;1.70;0.60;;;;;;;9.82;100.00;153880.13;4992446;28;20441;-79
2023/01/05 07:03:29;;;;;;;1.60;0.70;;;;;;;9.76;100.00;153867.19;4984204;28;20953;-79
2023/01/05 07:06:15;;;;;;;2.27;0.73;;;;;;;9.82;100.00;153880.13;4983513;28;20438;-79
2023/01/05 07:09:01;;;;;;;0.80;0.50;;;;;;;9.75;100.00;153864.56;4984380;28;20480;-79
2023/01/05 07:11:48;;;;;;;0.97;0.60;;;;;;;9.71;100.00;153852.94;4984940;28;20432;-79
2023/01/05 07:14:36;;;;;;;0.90;0.50;;;;;;;9.71;100.00;153854.25;4987555;28;20453;-79
2023/01/05 07:17:21;;;;;;;1.93;0.70;;;;;;;9.72;100.00;153855.50;4987159;28;20445;-79
2023/01/05 07:20:07;;;;;;;1.20;0.80;;;;;;;9.71;100.00;153852.94;4987427;28;20549;-79
2023/01/05 07:22:52;;;;;;;1.40;0.90;;;;;;;9.65;100.00;153838.72;4983995;28;20678;-78
2023/01/05 07:25:37;;;;;;;1.37;0.80;;;;;;;9.67;100.00;153842.56;4986186;28;21001;-79
2023/01/05 07:28:23;;;;;;;1.70;0.80;;;;;;;9.67;100.00;153843.88;4984991;28;20814;-79
2023/01/05 07:31:10;;;;;;;1.93;1.03;;;;;;;9.63;100.00;153833.53;4983345;28;20819;-78
2023/01/05 07:33:55;;;;;;;1.40;0.80;;;;;;;9.61;100.00;153828.34;4984444;28;20625;-79
2023/01/05 07:36:41;;;;;;;3.67;1.00;;;;;;;9.61;100.00;153828.34;4984965;28;20495;-78
2023/01/05 07:39:26;;;;;;;1.80;0.80;;;;;;;9.59;100.00;153823.16;4986791;28;20959;-79
2023/01/05 07:42:12;;;;;;;2.13;1.00;;;;;;;9.61;100.00;153827.06;4986747;28;20984;-79
2023/01/05 07:45:00;;;;;;;1.90;0.93;;;;;;;9.58;100.00;153820.56;4996435;28;20439;-78
2023/01/05 07:47:47;;;;;;;2.40;0.67;;;;;;;9.60;100.00;153825.78;4983402;28;20453;-79
2023/01/05 07:50:32;;;;;;;1.13;0.63;;;;;;;9.58;100.00;153820.56;4984025;28;20454;-79
2023/01/05 07:53:18;;;;;;;1.40;0.70;;;;;;;9.59;100.00;153823.16;4985638;28;20921;-78
2023/01/05 07:56:05;;;;;;;2.00;0.93;;;;;;;9.60;100.00;153824.47;4983240;28;20585;-79
2023/01/05 07:58:50;;;;;;;1.67;1.20;;;;;;;9.58;100.00;153820.56;4984226;28;20442;-79
2023/01/05 08:01:36;;;;;;;1.70;0.80;;;;;;;9.56;100.00;153814.09;4984064;28;20463;-79
2023/01/05 08:04:23;;;;;;;2.07;0.93;;;;;;;9.57;100.00;153816.69;4997845;28;20458;-79
2023/01/05 08:07:10;;;;;;;2.43;1.50;;;;;;;9.56;100.00;153814.09;4984447;28;20530;-79
2023/01/05 08:16:06;;;;;;;1.53;0.80;;;;;;;9.57;100.00;153816.69;4997245;28;20536;-79
2023/01/05 08:18:51;;;;;;;2.13;0.90;;;;;;;9.59;100.00;153823.16;4985108;28;20597;-78
2023/01/05 08:21:38;;;;;;;2.40;0.90;;;;;;;9.59;100.00;153823.16;4997208;28;20467;-78
2023/01/05 08:24:23;;;;;;;1.60;1.07;;;;;;;9.58;100.00;153820.56;4991173;28;20450;-78
2023/01/05 08:27:09;;;;;;;1.20;0.90;;;;;;;9.58;100.00;153820.56;4983740;28;20471;-79
2023/01/05 08:29:54;;;;;;;3.83;1.07;;;;;;;9.58;100.00;153819.31;4985952;28;20446;-79
2023/01/05 08:32:40;;;;;;;1.27;1.03;;;;;;;9.58;100.00;153820.56;4981070;28;20449;-79
2023/01/05 08:35:26;;;;;;;1.73;1.10;;;;;;;9.60;100.00;153825.78;4980583;28;20528;-79
2023/01/05 08:38:13;;;;;;;2.13;0.90;;;;;;;9.60;100.00;153825.78;4979798;28;20540;-79
2023/01/05 08:40:59;;;;;;;5.80;1.07;;;;;;;9.62;100.00;153830.94;4993771;28;20440;-79
2023/01/05 08:43:49;;;;;;;2.07;0.97;;;;;;;9.62;100.00;153830.94;4983381;28;20446;-79
2023/01/05 08:46:35;;;;;;;2.80;1.20;;;;;;;9.65;100.00;153837.41;4978081;28;20458;-79
2023/01/05 08:49:22;;;;;;;2.53;1.53;;;;;;;9.66;100.00;153841.25;4981986;28;20493;-79
2023/01/05 08:52:07;;;;;;;2.73;1.20;;;;;;;9.68;100.00;153846.47;4978769;28;20479;-79
2023/01/05 08:54:55;;;;;;;1.60;1.27;;;;;;;9.70;100.00;153851.63;4993406;28;20850;-79
2023/01/05 08:57:40;;;;;;;3.73;1.23;;;;;;;9.76;100.00;153867.19;4982786;28;20459;-78
2023/01/05 09:00:25;;;;;;;2.83;1.00;;;;;;;9.79;100.00;153874.91;4984433;28;20473;-79
2023/01/05 09:03:11;;;;;;;4.90;1.67;;;;;;;9.75;100.00;153864.56;4988828;28;20838;-79
2023/01/05 09:06:01;;;;;;;5.60;1.27;;;;;;;9.73;100.00;153859.41;4991909;28;20433;-79
2023/01/05 09:08:49;;;;;;;3.60;1.40;;;;;;;9.84;100.00;153885.28;4980135;28;20462;-79
2023/01/05 09:11:36;;;;;;;2.50;1.27;;;;;;;9.80;100.00;153876.22;4979250;28;20933;-79
2023/01/05 09:14:21;;;;;;;3.40;1.33;;;;;;;9.73;100.00;153858.09;4978894;28;20887;-79
2023/01/05 09:17:06;;;;;;;4.50;1.30;;;;;;;9.74;100.00;153861.97;4977615;28;21022;-79
2023/01/05 09:19:52;;;;;;;4.80;1.70;;;;;;;9.67;100.00;153842.56;4992372;28;20449;-79
2023/01/05 09:22:38;;;;;;;2.83;1.20;;;;;;;9.68;100.00;153846.47;4979664;28;20481;-79
2023/01/05 09:25:23;;;;;;;4.80;1.43;;;;;;;9.72;100.00;153855.50;4978836;28;20575;-79
2023/01/05 09:28:10;;;;;;;5.83;1.50;;;;;;;9.69;100.00;153849.03;4979768;28;20509;-79
2023/01/05 09:30:55;;;;;;;7.70;1.67;;;;;;;9.66;100.00;153841.25;4980519;28;21722;-79
2023/01/05 09:33:41;;;;;;;6.33;1.60;;;;;;;9.68;100.00;153846.47;4982937;28;20794;-79
2023/01/05 09:36:26;;;;;;;5.87;1.43;;;;;;;9.69;100.00;153847.72;4978532;28;20458;-79
2023/01/05 09:39:12;;;;;;;4.73;2.33;;;;;;;9.63;100.00;153833.53;4981520;28;20800;-79
2023/01/05 09:41:59;;;;;;;5.97;2.00;;;;;;;9.66;100.00;153840.00;4979784;28;21033;-79
2023/01/05 09:44:48;;;;;;;4.50;1.40;;;;;;;9.64;100.00;153836.09;4982807;28;20589;-79
2023/01/05 09:47:36;;;;;;;4.90;1.53;;;;;;;9.68;100.00;153846.47;4981417;28;20453;-79
2023/01/05 09:50:24;;;;;;;5.90;2.00;;;;;;;9.82;100.00;153880.13;4983888;28;20452;-79
2023/01/05 09:53:10;;;;;;;8.77;2.40;;;;;;;9.77;100.00;153869.75;4982507;28;20442;-79
2023/01/05 09:55:56;;;;;;;6.10;1.50;;;;;;;9.80;100.00;153877.50;4980650;28;20888;-79
2023/01/05 09:58:42;;;;;;;3.47;1.27;;;;;;;9.84;100.00;153886.59;4982357;28;20542;-79
2023/01/05 10:01:31;;;;;;;7.93;2.10;;;;;;;9.84;100.00;153885.28;4979788;28;20526;-79
2023/01/05 10:04:19;;;;;;;4.30;2.03;;;;;;;9.87;100.00;153894.34;4982240;28;20464;-79
2023/01/05 10:07:07;;;;;;;7.60;1.47;;;;;;;9.87;100.00;153894.34;4981758;28;20564;-79
2023/01/05 10:09:54;;;;;;;2.90;1.23;;;;;;;9.87;100.00;153893.06;4983078;28;20589;-79
2023/01/05 10:15:48;;;;;;;5.07;2.33;;;;;;;9.90;100.00;153902.06;4991758;28;20450;-79
2023/01/05 10:18:36;;;;;;;7.00;1.73;;;;;;;9.95;100.00;153913.75;4984464;28;20952;-79
2023/01/05 10:21:29;;;;;;;5.53;1.37;;;;;;;9.95;100.00;153915.06;4982574;28;20529;-79
2023/01/05 10:24:26;;;;;;;3.20;1.40;;;;;;;9.94;100.00;153911.16;4987671;28;20459;-79
2023/01/05 10:27:15;;;;;;;6.73;1.77;;;;;;;9.98;100.00;153922.78;4981053;28;20955;-79
2023/01/05 10:30:09;;;;;;;2.70;1.50;;;;;;;10.04;100.00;153938.34;4986319;28;20450;-79
2023/01/05 10:32:59;;;;;;;6.70;1.90;;;;;;;10.02;100.00;153933.16;4981403;28;20598;-79
2023/01/05 10:35:54;;;;;;;3.60;1.93;;;;;;;10.09;100.00;153949.97;4979570;28;20482;-79
2023/01/05 10:38:49;;;;;;;4.87;1.80;;;;;;;10.10;100.00;153952.56;4984705;28;20863;-79
2023/01/05 10:41:39;;;;;;;3.63;2.10;;;;;;;10.12;100.00;153959.09;4980990;28;20586;-79
2023/01/05 10:44:39;;;;;;;2.63;1.20;;;;;;;10.11;100.00;153955.19;4986132;28;20456;-79
2023/01/05 10:47:26;;;;;;;8.30;2.20;;;;;;;10.09;100.00;153951.25;4986031;28;20441;-79
2023/01/05 10:50:35;;;;;;;4.73;1.63;;;;;;;10.15;100.00;153965.56;4985475;28;20445;-79
2023/01/05 10:53:25;;;;;;;4.33;1.40;;;;;;;10.13;100.00;153960.41;4985303;28;20471;-79
2023/01/05 10:56:14;;;;;;;7.37;1.90;;;;;;;10.19;100.00;153977.19;4984469;28;20528;-79
2023/01/05 10:59:07;;;;;;;6.00;2.00;;;;;;;10.20;100.00;153978.50;4982745;28;20796;-79
2023/01/05 11:01:52;;;;;;;5.17;1.43;;;;;;;10.20;100.00;153978.50;4982829;28;20460;-79
2023/01/05 11:04:38;;;;;;;3.30;1.40;;;;;;;10.22;99.81;153984.97;4990489;28;20473;-79
2023/01/05 11:07:23;;;;;;;3.87;1.80;;;;;;;10.22;97.60;153983.66;4983722;28;20441;-79
2023/01/05 11:10:19;;;;;;;4.27;1.77;;;;;;;10.21;97.61;153982.41;4985390;28;20443;-79
2023/01/05 11:13:07;;;;;;;5.57;1.80;;;;;;;10.25;98.97;153991.44;4984166;28;20532;-79
2023/01/05 11:15:55;;;;;;;2.60;1.20;;;;;;;10.26;98.75;153994.03;4983419;28;20594;-79
2023/01/05 11:18:47;;;;;;;3.70;1.40;;;;;;;10.29;100.00;154003.13;4982366;28;20721;-79
2023/01/05 11:21:43;;;;;;;4.10;2.00;;;;;;;10.24;100.00;153988.88;4984649;28;20447;-79
2023/01/05 11:24:31;;;;;;;8.40;1.90;;;;;;;10.22;100.00;153984.97;4984535;28;20475;-79
2023/01/05 11:27:24;;;;;;;4.40;1.73;;;;;;;10.25;99.85;153992.75;4984097;28;20953;-79
2023/01/05 11:30:23;;;;;;;5.60;1.70;;;;;;;10.26;97.16;153995.34;4983671;28;20994;-79
2023/01/05 11:33:14;;;;;;;4.10;1.50;;;;;;;10.21;98.66;153982.41;4982888;28;20512;-79
2023/01/05 11:36:01;;;;;;;7.50;1.87;;;;;;;10.22;97.50;153983.66;4983914;28;20501;-79
2023/01/05 11:38:51;;;;;;;4.90;1.20;;;;;;;10.30;100.00;154004.38;4985666;28;20466;-79
2023/01/05 11:41:36;;;;;;;4.87;1.80;;;;;;;10.29;96.55;154003.13;4991353;28;20441;-79
2023/01/05 11:44:24;;;;;;;2.30;1.30;;;;;;;10.35;97.33;154017.38;4987030;28;20517;-79
2023/01/05 11:47:10;;;;;;;5.33;1.43;;;;;;;10.37;96.34;154022.53;4984405;28;20517;-79
2023/01/05 11:50:05;;;;;;;4.37;1.53;;;;;;;10.36;95.51;154019.94;4985453;28;20434;-79
2023/01/05 11:52:52;;;;;;;5.80;1.33;;;;;;;10.39;99.07;154029.00;4982679;28;20453;-79
2023/01/05 11:55:38;;;;;;;5.80;1.40;;;;;;;10.43;98.02;154036.78;4985843;28;20446;-79
2023/01/05 11:58:25;;;;;;;4.70;1.47;;;;;;;10.45;98.24;154041.94;4987662;28;20466;-79
2023/01/05 12:01:43;;;;;;;3.93;1.80;;;;;;;10.47;96.56;154048.41;4982780;28;20826;-79
2023/01/05 12:04:38;;;;;;;5.57;1.27;;;;;;;10.48;94.57;154051.03;4987134;28;20493;-79
2023/01/05 12:07:31;;;;;;;4.90;2.30;;;;;;;10.50;95.67;154056.19;4983363;28;20459;-79
2023/01/05 12:10:29;;;;;;;6.13;1.73;;;;;;;10.51;98.68;154058.75;4986699;28;20595;-79
2023/01/05 12:13:37;;;;;;;3.23;1.50;;;;;;;10.51;99.01;154058.75;4985005;28;20462;-79
2023/01/05 12:16:31;;;;;;;8.37;1.73;;;;;;;10.53;93.89;154063.97;4984540;28;20466;-79
2023/01/05 12:19:45;;;;;;;3.30;1.67;;;;;;;10.48;97.03;154051.03;4983505;28;20603;-79
2023/01/05 12:22:54;;;;;;;6.37;1.80;;;;;;;10.47;94.83;154048.41;4986081;28;21016;-79
2023/01/05 12:25:50;;;;;;;7.67;2.10;;;;;;;10.53;96.72;154062.66;4983919;28;20455;-79
2023/01/05 12:29:03;;;;;;;3.90;1.60;;;;;;;10.50;94.21;154056.19;4983860;28;20508;-79
2023/01/05 12:32:05;;;;;;;5.80;1.90;;;;;;;10.51;97.36;154057.50;4982077;28;20442;-79
2023/01/05 12:35:07;;;;;;;5.40;1.77;;;;;;;10.47;99.49;154048.41;4984465;28;20687;-79
2023/01/05 12:38:05;;;;;;;6.77;1.83;;;;;;;10.46;95.71;154045.81;4994803;28;20474;-79
2023/01/05 12:41:04;;;;;;;3.93;1.50;;;;;;;10.47;97.63;154047.13;4981510;28;20902;-79
2023/01/05 12:44:01;;;;;;;5.60;1.60;;;;;;;10.48;95.45;154051.03;4981909;28;20486;-79
2023/01/05 12:46:57;;;;;;;5.63;1.43;;;;;;;10.46;98.99;154045.81;4984456;28;20540;-79
2023/01/05 12:49:45;;;;;;;5.47;1.33;;;;;;;10.41;95.43;154032.88;4981379;28;20588;-79
2023/01/05 12:52:35;;;;;;;3.20;1.70;;;;;;;10.47;94.70;154047.13;4981510;28;20451;-79
2023/01/05 12:55:24;;;;;;;6.63;1.90;;;;;;;10.50;97.82;154054.88;4984056;28;20953;-79
2023/01/05 12:58:12;;;;;;;4.77;1.07;;;;;;;10.47;95.63;154047.13;4982250;28;20554;-79
2023/01/05 13:00:59;;;;;;;5.17;1.37;;;;;;;10.47;93.34;154048.41;4983009;28;20495;-79
2023/01/05 13:03:48;;;;;;;5.37;1.70;;;;;;;10.52;96.68;154060.06;4981755;28;20482;-79
2023/01/05 13:06:36;;;;;;;6.53;2.43;;;;;;;10.48;97.38;154049.72;4982545;28;20553;-79
2023/01/05 13:09:24;;;;;;;5.23;1.90;;;;;;;10.42;93.84;154035.47;4982141;28;20463;-79
2023/01/05 13:12:11;;;;;;;5.13;1.70;;;;;;;10.46;94.51;154044.56;4981861;28;20451;-79
2023/01/05 13:15:07;;;;;;;4.73;1.70;;;;;;;10.47;98.09;154047.13;4982625;28;20558;-79
2023/01/05 13:17:53;;;;;;;5.97;1.60;;;;;;;10.44;96.37;154039.34;4978866;28;20957;-79
2023/01/05 13:20:41;;;;;;;3.40;1.30;;;;;;;10.45;95.65;154041.94;4985825;28;20898;-79
2023/01/05 13:23:28;;;;;;;6.97;2.00;;;;;;;10.44;94.92;154040.63;4980808;28;20836;-79
2023/01/05 13:26:17;;;;;;;6.90;2.93;;;;;;;10.50;94.99;154054.88;4981069;28;20461;-79
2023/01/05 13:29:02;;;;;;;4.37;1.70;;;;;;;10.52;94.45;154061.34;4984128;28;20538;-79
2023/01/05 13:32:09;;;;;;;6.37;1.53;;;;;;;10.50;94.94;154056.19;4983579;28;20453;-79
2023/01/05 13:35:14;;;;;;;6.63;2.40;;;;;;;10.49;94.03;154053.59;4982396;28;20625;-79
2023/01/05 13:38:20;;;;;;;5.73;1.70;;;;;;;10.52;92.20;154061.34;4983141;28;20473;-79
2023/01/05 13:41:37;;;;;;;7.13;2.50;;;;;;;10.47;92.77;154047.13;4986869;28;20910;-79
2023/01/05 13:44:44;;;;;;;4.70;2.20;;;;;;;10.46;94.36;154044.56;4984790;28;20550;-79